createdAt,value
2018-05-17T00:01:54.903Z,11.55
2018-05-17T00:04:22.382Z,11.54
2018-05-17T00:06:49.962Z,11.57
2018-05-17T00:09:17.443Z,11.59
2018-05-17T00:11:44.949Z,11.63
2018-05-17T00:14:12.435Z,11.60
2018-05-17T00:16:39.930Z,11.58
2018-05-17T00:19:07.399Z,11.49
2018-05-17T00:21:35.017Z,11.38
2018-05-17T00:24:02.488Z,11.24
2018-05-17T00:26:30.030Z,11.10
2018-05-17T00:28:57.499Z,10.93
2018-05-17T00:31:24.999Z,10.90
2018-05-17T00:33:52.598Z,10.84
2018-05-17T00:36:20.178Z,10.74
2018-05-17T00:38:47.663Z,10.61
2018-05-17T00:41:15.283Z,10.46
2018-05-17T00:43:42.848Z,10.51
2018-05-17T00:46:10.346Z,10.63
2018-05-17T00:48:37.819Z,10.60
2018-05-17T00:51:05.424Z,10.49
2018-05-17T00:53:32.991Z,10.45
2018-05-17T00:56:00.549Z,10.34
2018-05-17T00:58:28.099Z,10.33
2018-05-17T01:00:55.628Z,10.21
2018-05-17T01:03:23.098Z,10.20
2018-05-17T01:05:50.566Z,10.18
2018-05-17T01:08:18.078Z,10.14
2018-05-17T01:10:45.598Z,10.08
2018-05-17T01:13:13.154Z,10.01
2018-05-17T01:15:40.706Z,9.95
2018-05-17T01:18:08.194Z,10.00
2018-05-17T01:20:35.666Z,10.07
2018-05-17T01:23:03.164Z,10.03
2018-05-17T01:25:30.630Z,9.95
2018-05-17T01:28:02.302Z,9.92
2018-05-17T01:30:29.771Z,10.09
2018-05-17T01:32:57.262Z,10.20
2018-05-17T01:35:24.755Z,10.32
2018-05-17T01:38:04.110Z,10.45
2018-05-17T01:40:31.606Z,10.60
2018-05-17T01:42:59.226Z,10.65
2018-05-17T01:45:26.698Z,10.67
2018-05-17T01:47:54.196Z,10.66
2018-05-17T01:50:21.677Z,10.60
2018-05-17T01:52:49.262Z,10.56
2018-05-17T01:55:16.750Z,10.52
2018-05-17T01:57:44.238Z,10.48
2018-05-17T02:00:11.769Z,10.44
2018-05-17T02:02:39.261Z,10.37
2018-05-17T02:05:07.766Z,10.32
2018-05-17T02:07:35.259Z,10.30
2018-05-17T02:10:02.742Z,10.32
2018-05-17T02:12:30.357Z,10.37
2018-05-17T02:14:57.830Z,10.48
2018-05-17T02:17:25.349Z,10.60
2018-05-17T02:19:52.830Z,10.76
2018-05-17T02:22:20.338Z,10.85
2018-05-17T02:24:47.851Z,10.91
2018-05-17T02:27:15.343Z,10.93
2018-05-17T02:29:42.839Z,10.95
2018-05-17T02:32:10.335Z,11.00
2018-05-17T02:34:37.848Z,10.93
2018-05-17T02:37:05.346Z,10.94
2018-05-17T02:39:32.851Z,11.04
2018-05-17T02:42:00.335Z,11.06
2018-05-17T02:44:27.828Z,11.04
2018-05-17T02:46:55.294Z,11.04
2018-05-17T02:49:22.784Z,11.07
2018-05-17T02:51:50.294Z,11.02
2018-05-17T02:54:17.791Z,11.07
2018-05-17T02:56:45.314Z,11.08
2018-05-17T02:59:12.807Z,11.02
2018-05-17T03:01:40.329Z,11.03
2018-05-17T03:04:07.881Z,10.96
2018-05-17T03:06:35.449Z,10.92
2018-05-17T03:09:07.005Z,10.92
2018-05-17T03:11:34.483Z,10.96
2018-05-17T03:14:01.977Z,10.98
2018-05-17T03:16:29.459Z,11.04
2018-05-17T03:18:56.995Z,11.08
2018-05-17T03:21:24.546Z,11.13
2018-05-17T03:23:52.082Z,11.19
2018-05-17T03:26:19.567Z,11.24
2018-05-17T03:28:47.062Z,11.29
2018-05-17T03:31:14.542Z,11.25
2018-05-17T03:33:42.081Z,11.22
2018-05-17T03:36:09.570Z,11.25
2018-05-17T03:38:37.118Z,11.23
2018-05-17T03:41:04.615Z,11.28
2018-05-17T03:43:32.115Z,11.26
2018-05-17T03:45:59.621Z,11.22
2018-05-17T03:48:27.139Z,11.18
2018-05-17T03:50:54.699Z,11.13
2018-05-17T03:53:22.179Z,11.12
2018-05-17T03:55:49.712Z,11.18
2018-05-17T03:58:17.191Z,11.23
2018-05-17T04:00:56.750Z,11.26
2018-05-17T04:03:36.031Z,11.31
2018-05-17T04:06:15.345Z,11.36
2018-05-17T04:08:42.826Z,11.40
2018-05-17T04:11:10.398Z,11.44
2018-05-17T04:13:37.970Z,11.39
2018-05-17T04:16:05.525Z,11.37
2018-05-17T04:18:32.993Z,11.28
2018-05-17T04:21:04.122Z,11.28
2018-05-17T04:23:31.723Z,11.30
2018-05-17T04:25:59.218Z,11.30
2018-05-17T04:28:26.699Z,11.28
2018-05-17T04:30:54.259Z,11.28
2018-05-17T04:33:21.790Z,11.35
2018-05-17T04:35:49.419Z,11.42
2018-05-17T04:38:16.938Z,11.47
2018-05-17T04:40:44.450Z,11.54
2018-05-17T04:43:11.983Z,11.61
2018-05-17T04:45:39.514Z,11.65
2018-05-17T04:48:07.076Z,11.68
2018-05-17T04:50:34.567Z,11.68
2018-05-17T04:53:02.039Z,11.66
2018-05-17T04:55:29.654Z,11.69
2018-05-17T04:57:57.123Z,11.69
2018-05-17T05:00:24.624Z,11.75
2018-05-17T05:02:52.188Z,11.83
2018-05-17T05:05:19.611Z,11.82
2018-05-17T05:07:47.158Z,11.82
2018-05-17T05:10:14.708Z,11.81
2018-05-17T05:12:42.209Z,11.77
2018-05-17T05:15:09.724Z,11.75
2018-05-17T05:17:37.230Z,11.77
2018-05-17T05:20:04.740Z,11.85
2018-05-17T05:22:32.238Z,11.88
2018-05-17T05:24:59.711Z,11.87
2018-05-17T05:27:27.209Z,11.94
2018-05-17T05:29:54.763Z,12.02
2018-05-17T05:32:22.342Z,12.08
2018-05-17T05:34:49.903Z,12.09
2018-05-17T05:37:17.492Z,12.09
2018-05-17T05:39:45.022Z,12.03
2018-05-17T05:42:12.526Z,12.02
2018-05-17T05:44:40.021Z,12.03
2018-05-17T05:47:07.515Z,12.06
2018-05-17T05:49:35.064Z,12.17
2018-05-17T05:52:02.615Z,12.27
2018-05-17T05:54:30.115Z,12.32
2018-05-17T05:56:57.623Z,12.31
2018-05-17T05:59:25.095Z,12.36
2018-05-17T06:01:52.750Z,12.41
2018-05-17T06:04:20.304Z,12.53
2018-05-17T06:06:47.858Z,12.60
2018-05-17T06:09:15.330Z,12.66
2018-05-17T06:11:42.875Z,12.78
2018-05-17T06:14:16.302Z,12.94
2018-05-17T06:16:43.950Z,13.17
2018-05-17T06:19:11.422Z,13.28
2018-05-17T06:21:38.968Z,13.31
2018-05-17T06:24:06.536Z,13.52
2018-05-17T06:26:34.006Z,13.65
2018-05-17T06:29:01.538Z,13.95
2018-05-17T06:31:29.020Z,14.15
2018-05-17T06:33:56.555Z,14.16
2018-05-17T06:36:24.023Z,14.00
2018-05-17T06:38:51.517Z,13.73
2018-05-17T06:41:19.034Z,13.94
2018-05-17T06:43:46.530Z,13.91
2018-05-17T06:46:14.079Z,13.94
2018-05-17T06:48:41.610Z,13.75
2018-05-17T06:51:09.184Z,13.67
2018-05-17T06:53:36.680Z,13.59
2018-05-17T06:56:04.218Z,13.47
2018-05-17T06:58:31.749Z,13.49
2018-05-17T07:00:59.296Z,13.47
2018-05-17T07:03:26.735Z,13.47
2018-05-17T07:05:54.202Z,13.52
2018-05-17T07:08:21.790Z,13.55
2018-05-17T07:10:49.363Z,13.54
2018-05-17T07:13:17.020Z,13.39
2018-05-17T07:15:44.592Z,13.29
2018-05-17T07:18:12.458Z,13.25
2018-05-17T07:20:39.726Z,13.15
2018-05-17T07:23:07.222Z,13.07
2018-05-17T07:25:34.706Z,13.03
2018-05-17T07:28:02.202Z,12.94
2018-05-17T07:30:29.702Z,13.04
2018-05-17T07:32:57.278Z,13.21
2018-05-17T07:35:24.747Z,13.37
2018-05-17T07:37:52.332Z,13.45
2018-05-17T07:40:19.856Z,13.35
2018-05-17T07:42:47.337Z,13.35
2018-05-17T07:45:14.832Z,13.44
2018-05-17T07:47:42.363Z,13.44
2018-05-17T07:50:14.190Z,13.46
2018-05-17T07:52:41.691Z,13.45
2018-05-17T07:55:09.260Z,13.43
2018-05-17T07:57:36.763Z,13.49
2018-05-17T08:00:04.328Z,13.55
2018-05-17T08:02:31.812Z,13.74
2018-05-17T08:04:59.312Z,13.99
2018-05-17T08:07:26.886Z,14.13
2018-05-17T08:09:54.390Z,14.26
2018-05-17T08:12:22.823Z,14.34
2018-05-17T08:14:50.318Z,14.35
2018-05-17T08:17:17.802Z,14.56
2018-05-17T08:19:45.297Z,14.81
2018-05-17T08:22:12.812Z,14.98
2018-05-17T08:24:40.310Z,15.05
2018-05-17T08:27:07.782Z,14.92
2018-05-17T08:29:35.690Z,14.95
2018-05-17T08:32:03.220Z,15.07
2018-05-17T08:34:30.702Z,15.31
2018-05-17T08:36:58.235Z,15.56
2018-05-17T08:39:25.727Z,15.67
2018-05-17T08:41:53.203Z,15.74
2018-05-17T08:44:20.702Z,15.68
2018-05-17T08:46:48.170Z,15.54
2018-05-17T08:49:15.730Z,15.53
2018-05-17T08:51:43.199Z,15.54
2018-05-17T08:54:10.667Z,15.86
2018-05-17T08:56:38.163Z,15.84
2018-05-17T08:59:05.642Z,16.03
2018-05-17T09:01:33.130Z,16.26
2018-05-17T09:04:00.603Z,16.94
2018-05-17T09:06:28.127Z,17.22
2018-05-17T09:08:55.614Z,17.42
2018-05-17T09:11:23.107Z,17.95
2018-05-17T09:13:50.721Z,18.07
2018-05-17T09:16:18.131Z,18.12
2018-05-17T09:18:45.691Z,18.17
2018-05-17T09:21:13.183Z,18.12
2018-05-17T09:23:40.672Z,17.66
2018-05-17T09:26:08.210Z,17.44
2018-05-17T09:28:35.766Z,17.48
2018-05-17T09:31:03.323Z,17.50
2018-05-17T09:33:30.890Z,17.91
2018-05-17T09:35:58.383Z,18.07
2018-05-17T09:38:25.897Z,18.40
2018-05-17T09:40:53.413Z,18.63
2018-05-17T09:43:20.908Z,19.17
2018-05-17T09:45:48.406Z,19.63
2018-05-17T09:48:15.906Z,20.32
2018-05-17T09:50:43.452Z,20.99
2018-05-17T09:53:10.935Z,21.13
2018-05-17T09:55:38.518Z,20.91
2018-05-17T09:58:06.074Z,20.60
2018-05-17T10:00:33.575Z,20.37
2018-05-17T10:03:01.086Z,19.82
2018-05-17T10:05:28.571Z,19.63
2018-05-17T10:07:56.163Z,20.37
2018-05-17T10:10:23.870Z,19.96
2018-05-17T10:12:51.375Z,20.01
2018-05-17T10:15:18.863Z,19.32
2018-05-17T10:17:46.447Z,19.46
2018-05-17T10:20:13.987Z,19.34
2018-05-17T10:22:41.522Z,20.13
2018-05-17T10:25:08.994Z,20.08
2018-05-17T10:27:36.487Z,20.83
2018-05-17T10:30:03.977Z,22.09
2018-05-17T10:32:31.503Z,22.00
2018-05-17T10:34:58.991Z,21.43
2018-05-17T10:37:26.514Z,21.31
2018-05-17T10:39:54.107Z,21.42
2018-05-17T10:42:21.675Z,22.12
2018-05-17T10:44:49.150Z,21.21
2018-05-17T10:47:16.717Z,21.30
2018-05-17T10:49:44.159Z,21.23
2018-05-17T10:52:11.676Z,21.30
2018-05-17T10:54:39.171Z,21.04
2018-05-17T10:57:06.787Z,20.41
2018-05-17T10:59:34.226Z,20.04
2018-05-17T11:02:01.843Z,20.19
2018-05-17T11:04:29.451Z,19.94
2018-05-17T11:06:56.935Z,20.03
2018-05-17T11:09:24.434Z,19.64
2018-05-17T11:11:51.929Z,19.89
2018-05-17T11:14:19.466Z,19.50
2018-05-17T11:16:46.935Z,19.53
2018-05-17T11:19:14.456Z,19.55
2018-05-17T11:21:41.957Z,19.56
2018-05-17T11:24:09.447Z,19.45
2018-05-17T11:26:36.922Z,19.13
2018-05-17T11:29:04.417Z,18.91
2018-05-17T11:31:31.913Z,18.35
2018-05-17T11:33:59.402Z,17.95
2018-05-17T11:36:26.881Z,17.85
2018-05-17T11:38:54.474Z,18.02
2018-05-17T11:41:21.948Z,18.46
2018-05-17T11:43:49.511Z,19.02
2018-05-17T11:46:17.075Z,18.93
2018-05-17T11:48:44.630Z,19.40
2018-05-17T11:51:12.122Z,19.87
2018-05-17T11:53:39.619Z,19.87
2018-05-17T11:56:07.103Z,19.57
2018-05-17T11:58:34.613Z,19.56
2018-05-17T12:01:02.091Z,19.48
2018-05-17T12:03:29.687Z,19.37
2018-05-17T12:05:57.158Z,19.20
2018-05-17T12:08:24.656Z,19.45
2018-05-17T12:10:52.128Z,19.58
2018-05-17T12:13:19.628Z,19.44
2018-05-17T12:15:47.138Z,19.45
2018-05-17T12:18:14.631Z,19.45
2018-05-17T12:20:42.120Z,19.60
2018-05-17T12:23:09.666Z,20.21
2018-05-17T12:25:37.162Z,20.55
2018-05-17T12:28:04.671Z,21.16
2018-05-17T12:30:32.215Z,20.75
2018-05-17T12:32:59.686Z,20.89
2018-05-17T12:35:27.183Z,21.69
2018-05-17T12:37:54.797Z,21.65
2018-05-17T12:40:22.291Z,21.97
2018-05-17T12:42:49.904Z,22.31
2018-05-17T12:45:17.395Z,22.22
2018-05-17T12:47:44.941Z,22.53
2018-05-17T12:50:12.451Z,21.89
2018-05-17T12:52:39.939Z,23.00
2018-05-17T12:55:07.459Z,23.51
2018-05-17T12:57:35.003Z,25.15
2018-05-17T13:00:02.507Z,27.87
2018-05-17T13:02:30.013Z,28.29
2018-05-17T13:04:57.599Z,27.65
2018-05-17T13:07:25.148Z,26.83
2018-05-17T13:09:52.631Z,25.67
2018-05-17T13:12:20.151Z,24.41
2018-05-17T13:14:47.936Z,24.12
2018-05-17T13:17:15.451Z,24.69
2018-05-17T13:19:42.965Z,28.63
2018-05-17T13:22:10.515Z,30.28
2018-05-17T13:24:38.448Z,29.08
2018-05-17T13:27:05.919Z,26.94
2018-05-17T13:29:33.425Z,25.04
2018-05-17T13:32:00.900Z,24.24
2018-05-17T13:34:28.406Z,23.83
2018-05-17T13:36:55.894Z,23.89
2018-05-17T13:39:23.368Z,24.21
2018-05-17T13:41:50.883Z,23.09
2018-05-17T13:44:18.366Z,22.42
2018-05-17T13:46:45.885Z,21.97
2018-05-17T13:49:13.500Z,21.65
2018-05-17T13:51:40.963Z,22.70
2018-05-17T13:54:08.450Z,23.32
2018-05-17T13:56:35.950Z,23.03
2018-05-17T13:59:03.435Z,23.09
2018-05-17T14:01:30.934Z,23.08
2018-05-17T14:03:58.459Z,24.08
2018-05-17T14:06:25.954Z,23.95
2018-05-17T14:08:53.479Z,24.80
2018-05-17T14:11:20.979Z,24.29
2018-05-17T14:13:48.528Z,24.22
2018-05-17T14:16:16.034Z,25.17
2018-05-17T14:18:43.509Z,27.63
2018-05-17T14:21:10.997Z,26.71
2018-05-17T14:23:38.667Z,25.93
2018-05-17T14:26:06.173Z,25.12
2018-05-17T14:28:33.779Z,25.80
2018-05-17T14:31:01.294Z,26.38
2018-05-17T14:33:28.783Z,30.45
2018-05-17T14:35:56.254Z,31.40
2018-05-17T14:38:23.743Z,31.55
2018-05-17T14:40:53.702Z,29.73
2018-05-17T14:43:22.090Z,29.22
2018-05-17T14:45:49.865Z,29.31
2018-05-17T14:48:17.718Z,29.44
2018-05-17T14:50:45.194Z,29.24
2018-05-17T14:53:12.705Z,28.91
2018-05-17T14:55:40.174Z,30.12
2018-05-17T14:58:07.687Z,31.50
2018-05-17T15:00:35.219Z,31.23
2018-05-17T15:03:02.737Z,30.82
2018-05-17T15:05:30.212Z,28.81
2018-05-17T15:07:57.709Z,29.55
2018-05-17T15:10:25.179Z,28.66
2018-05-17T15:12:52.674Z,29.13
2018-05-17T15:15:20.162Z,26.30
2018-05-17T15:17:47.722Z,27.29
2018-05-17T15:20:15.266Z,26.98
2018-05-17T15:22:42.763Z,26.56
2018-05-17T15:25:10.345Z,24.55
2018-05-17T15:27:37.898Z,23.39
2018-05-17T15:30:06.139Z,23.26
2018-05-17T15:32:33.630Z,22.76
2018-05-17T15:35:01.179Z,22.71
2018-05-17T15:37:28.675Z,22.96
2018-05-17T15:39:56.178Z,22.94
2018-05-17T15:42:23.687Z,23.22
2018-05-17T15:44:55.260Z,22.79
2018-05-17T15:47:22.927Z,22.53
2018-05-17T15:49:50.435Z,22.21
2018-05-17T15:52:18.005Z,22.18
2018-05-17T15:54:45.530Z,21.57
2018-05-17T15:57:13.023Z,20.95
2018-05-17T15:59:40.550Z,21.45
2018-05-17T16:02:08.046Z,21.53
2018-05-17T16:04:36.429Z,21.40
2018-05-17T16:07:04.184Z,21.04
2018-05-17T16:09:31.806Z,20.71
2018-05-17T16:11:59.283Z,20.83
2018-05-17T16:14:26.949Z,20.65
2018-05-17T16:16:54.508Z,20.43
2018-05-17T16:19:22.054Z,20.34
2018-05-17T16:21:49.619Z,19.94
2018-05-17T16:24:18.295Z,19.89
2018-05-17T16:26:45.854Z,19.63
2018-05-17T16:29:13.370Z,19.16
2018-05-17T16:31:40.883Z,18.68
2018-05-17T16:34:08.376Z,18.25
2018-05-17T16:36:35.855Z,17.98
2018-05-17T16:39:03.487Z,17.74
2018-05-17T16:41:31.010Z,17.72
2018-05-17T16:43:58.607Z,17.84
2018-05-17T16:46:26.070Z,17.98
2018-05-17T16:48:53.635Z,18.09
2018-05-17T16:51:21.191Z,18.46
2018-05-17T16:53:48.685Z,19.05
2018-05-17T16:56:16.178Z,19.90
2018-05-17T16:58:43.710Z,22.64
2018-05-17T17:01:11.180Z,23.77
2018-05-17T17:03:38.658Z,24.92
2018-05-17T17:06:06.147Z,26.01
2018-05-17T17:08:33.641Z,26.44
2018-05-17T17:11:01.139Z,26.11
2018-05-17T17:13:28.603Z,25.97
2018-05-17T17:15:56.121Z,25.30
2018-05-17T17:18:23.606Z,24.40
2018-05-17T17:20:51.098Z,24.24
2018-05-17T17:23:18.600Z,23.77
2018-05-17T17:25:46.184Z,23.85
2018-05-17T17:28:13.764Z,23.22
2018-05-17T17:30:41.296Z,22.75
2018-05-17T17:33:08.771Z,22.86
2018-05-17T17:35:36.304Z,22.72
2018-05-17T17:38:03.810Z,23.13
2018-05-17T17:40:36.910Z,23.24
2018-05-17T17:43:04.447Z,21.74
2018-05-17T17:45:31.945Z,20.23
2018-05-17T17:47:59.534Z,19.56
2018-05-17T17:50:27.014Z,19.31
2018-05-17T17:52:54.492Z,19.01
2018-05-17T17:55:22.007Z,18.77
2018-05-17T17:57:49.519Z,18.32
2018-05-17T18:00:17.025Z,18.14
2018-05-17T18:02:44.482Z,17.89
2018-05-17T18:05:12.115Z,17.60
2018-05-17T18:07:39.529Z,17.45
2018-05-17T18:10:06.999Z,17.27
2018-05-17T18:12:34.601Z,16.98
2018-05-17T18:15:02.078Z,16.79
2018-05-17T18:17:29.574Z,16.70
2018-05-17T18:19:57.087Z,16.57
2018-05-17T18:22:24.594Z,16.48
2018-05-17T18:24:52.157Z,16.42
2018-05-17T18:27:20.706Z,16.38
2018-05-17T18:29:48.187Z,16.36
2018-05-17T18:32:15.679Z,16.33
2018-05-17T18:34:43.155Z,16.14
2018-05-17T18:37:10.651Z,16.06
2018-05-17T18:39:38.220Z,15.97
2018-05-17T18:42:05.767Z,15.87
2018-05-17T18:44:33.282Z,15.81
2018-05-17T18:47:00.774Z,15.71
2018-05-17T18:49:28.332Z,15.54
2018-05-17T18:51:55.892Z,15.41
2018-05-17T18:54:23.450Z,15.28
2018-05-17T18:56:51.016Z,15.11
2018-05-17T18:59:18.456Z,15.00
2018-05-17T19:01:46.027Z,14.87
2018-05-17T19:04:13.578Z,14.85
2018-05-17T19:09:13.957Z,14.53
2018-05-17T19:11:41.486Z,14.37
2018-05-17T19:14:09.028Z,14.26
2018-05-17T19:16:36.446Z,14.14
2018-05-17T19:19:03.950Z,14.09
2018-05-17T19:21:31.532Z,14.10
2018-05-17T19:23:59.034Z,14.22
2018-05-17T19:26:26.511Z,14.26
2018-05-17T19:28:54.090Z,14.30
2018-05-17T19:31:23.685Z,14.24
2018-05-17T19:33:51.232Z,14.16
2018-05-17T19:36:18.732Z,14.09
2018-05-17T19:38:46.239Z,14.13
2018-05-17T19:41:13.715Z,14.05
2018-05-17T19:43:41.215Z,14.11
2018-05-17T19:46:08.773Z,14.14
2018-05-17T19:48:36.329Z,14.16
2018-05-17T19:51:03.802Z,14.13
2018-05-17T19:53:31.306Z,14.05
2018-05-17T19:55:58.811Z,13.98
2018-05-17T19:58:26.304Z,13.84
2018-05-17T20:00:53.830Z,13.73
2018-05-17T20:03:21.475Z,13.57
2018-05-17T20:05:48.950Z,13.49
2018-05-17T20:08:16.481Z,13.44
2018-05-17T20:10:44.076Z,13.36
2018-05-17T20:13:11.570Z,13.26
2018-05-17T20:15:39.056Z,13.21
2018-05-17T20:18:06.622Z,13.15
2018-05-17T20:20:34.183Z,13.08
2018-05-17T20:23:01.675Z,13.00
2018-05-17T20:25:29.186Z,12.98
2018-05-17T20:27:56.758Z,12.93
2018-05-17T20:30:24.256Z,12.88
2018-05-17T20:32:51.779Z,12.82
2018-05-17T20:35:19.273Z,12.73
2018-05-17T20:37:46.747Z,12.71
2018-05-17T20:40:14.255Z,12.70
2018-05-17T20:42:41.744Z,12.66
2018-05-17T20:45:09.243Z,12.66
2018-05-17T20:47:36.752Z,12.67
2018-05-17T20:50:04.288Z,12.67
2018-05-17T20:52:31.777Z,12.72
2018-05-17T20:54:59.366Z,12.70
2018-05-17T20:57:26.842Z,12.68
2018-05-17T20:59:54.383Z,12.64
2018-05-17T21:02:21.854Z,12.56
2018-05-17T21:04:50.015Z,12.49
2018-05-17T21:07:17.535Z,12.39
2018-05-17T21:09:45.054Z,12.35
2018-05-17T21:12:12.527Z,12.27
2018-05-17T21:14:40.074Z,12.37
2018-05-17T21:17:07.545Z,12.40
2018-05-17T21:19:35.046Z,12.54
2018-05-17T21:22:02.523Z,12.52
2018-05-17T21:24:30.044Z,12.43
2018-05-17T21:26:57.538Z,12.34
2018-05-17T21:29:25.043Z,12.32
2018-05-17T21:31:52.669Z,12.25
2018-05-17T21:34:20.282Z,12.22
2018-05-17T21:36:47.779Z,12.21
2018-05-17T21:39:15.279Z,12.23
2018-05-17T21:41:42.859Z,12.22
2018-05-17T21:44:10.329Z,12.17
2018-05-17T21:46:37.818Z,12.19
2018-05-17T21:49:05.320Z,12.19
2018-05-17T21:51:32.851Z,12.23
2018-05-17T21:54:00.369Z,12.22
2018-05-17T21:56:27.895Z,12.19
2018-05-17T21:58:55.375Z,12.17
2018-05-17T22:01:22.871Z,12.17
2018-05-17T22:03:50.351Z,12.16
2018-05-17T22:06:17.870Z,12.13
2018-05-17T22:08:45.339Z,12.06
2018-05-17T22:11:12.834Z,11.97
2018-05-17T22:13:40.309Z,11.91
2018-05-17T22:16:07.803Z,11.84
2018-05-17T22:18:35.344Z,11.83
2018-05-17T22:21:02.883Z,11.79
2018-05-17T22:23:30.449Z,11.73
2018-05-17T22:26:03.960Z,11.74
2018-05-17T22:28:31.553Z,11.72
2018-05-17T22:30:59.125Z,11.72
2018-05-17T22:33:27.179Z,11.66
2018-05-17T22:35:54.703Z,11.64
2018-05-17T22:38:22.166Z,11.59
2018-05-17T22:40:49.634Z,11.59
2018-05-17T22:43:17.135Z,11.59
2018-05-17T22:45:44.611Z,11.53
2018-05-17T22:48:12.982Z,11.53
2018-05-17T22:50:40.458Z,11.53
2018-05-17T22:53:07.945Z,11.53
2018-05-17T22:55:35.410Z,11.42
2018-05-17T22:58:14.639Z,11.40
2018-05-17T23:00:42.107Z,11.41
2018-05-17T23:03:09.641Z,11.36
2018-05-17T23:05:37.112Z,11.26
2018-05-17T23:08:04.618Z,11.18
2018-05-17T23:10:32.093Z,11.16
2018-05-17T23:12:59.603Z,11.11
2018-05-17T23:15:27.075Z,11.06
2018-05-17T23:17:54.568Z,11.09
2018-05-17T23:20:22.083Z,11.09
2018-05-17T23:22:49.575Z,11.05
2018-05-17T23:25:17.039Z,10.98
2018-05-17T23:27:44.533Z,10.91
2018-05-17T23:30:12.019Z,10.85
2018-05-17T23:32:39.511Z,10.88
2018-05-17T23:35:06.979Z,10.98
2018-05-17T23:37:34.478Z,11.03
2018-05-17T23:40:13.970Z,10.97
2018-05-17T23:42:41.456Z,10.97
2018-05-17T23:45:08.935Z,10.93
2018-05-17T23:47:36.492Z,10.88
2018-05-17T23:50:03.922Z,10.83
2018-05-17T23:52:31.411Z,10.92
2018-05-17T23:54:58.883Z,11.01
2018-05-17T23:57:26.378Z,11.18
2018-05-17T23:59:53.842Z,11.32
